Time;durP1;ratioP1;P1;durP2;ratioP2;P2;SDS_P1;SDS_P2;PMS_P1;PMS_P2;Temp;Humidity;BMP_temperature;BMP_pressure;BME280_temperature;BME280_humidity;BME280_pressure;Samples;Min_cycle;Max_cycle;Signal;HPM_P1;HPM_P2
2021/12/14 00:01:10;;;;;;;3.13;2.50;;;;;;;4.67;95.46;99690.28;4209655;28;20150;-71
2021/12/14 00:03:14;;;;;;;2.53;2.22;;;;;;;4.67;95.67;99690.28;4204187;28;20064;-72
2021/12/14 00:05:18;;;;;;;3.45;2.53;;;;;;;4.65;95.74;99700.75;4206676;28;20047;-71
2021/12/14 00:07:19;;;;;;;3.45;2.40;;;;;;;4.66;96.42;99692.22;4207453;28;20036;-71
2021/12/14 00:09:34;;;;;;;4.53;2.75;;;;;;;4.64;95.78;99688.97;4206598;28;20376;-72
2021/12/14 00:13:56;;;;;;;4.43;2.88;;;;;;;4.62;96.17;99693.94;4207850;28;20035;-71
2021/12/14 00:15:57;;;;;;;3.55;2.80;;;;;;;4.65;95.37;99696.06;4208045;28;20549;-71
2021/12/14 00:18:02;;;;;;;3.85;3.00;;;;;;;4.65;94.54;99687.84;4208689;28;20055;-71
2021/12/14 00:20:14;;;;;;;5.65;2.92;;;;;;;4.67;94.42;99693.03;4209018;27;20041;-72
2021/12/14 00:22:27;;;;;;;4.05;2.83;;;;;;;4.65;94.75;99690.59;4205893;28;20023;-71
2021/12/14 00:24:28;;;;;;;3.78;2.78;;;;;;;4.67;94.27;99693.03;4206451;27;20039;-72
2021/12/14 00:26:28;;;;;;;4.05;2.60;;;;;;;4.68;93.41;99694.63;4208020;27;20036;-71
2021/12/14 00:28:32;;;;;;;3.63;2.78;;;;;;;4.68;94.59;99689.97;4210193;27;20028;-72
2021/12/14 00:30:33;;;;;;;3.50;2.50;;;;;;;4.65;94.84;99692.53;4207725;27;20138;-71
2021/12/14 00:32:36;;;;;;;4.35;2.70;;;;;;;4.62;94.48;99685.72;4210910;27;20757;-71
2021/12/14 00:34:41;;;;;;;3.63;2.75;;;;;;;4.63;95.37;99689.25;4211705;27;20044;-71
2021/12/14 00:36:41;;;;;;;3.45;2.60;;;;;;;4.59;95.88;99691.00;4211966;27;20093;-72
2021/12/14 00:38:44;;;;;;;3.45;2.60;;;;;;;4.59;95.84;99685.53;4209399;27;20489;-72
2021/12/14 00:40:49;;;;;;;3.58;2.60;;;;;;;4.58;96.16;99690.19;4211134;27;20472;-71
2021/12/14 00:42:51;;;;;;;3.38;2.78;;;;;;;4.56;95.73;99686.16;4208369;27;20089;-71
2021/12/14 00:44:51;;;;;;;4.85;2.72;;;;;;;4.57;96.33;99687.78;4210993;27;20036;-72
2021/12/14 00:46:52;;;;;;;3.72;2.40;;;;;;;4.57;95.95;99687.78;4208198;27;20046;-71
2021/12/14 00:48:53;;;;;;;3.42;2.40;;;;;;;4.56;95.45;99686.97;4206632;27;20447;-71
2021/12/14 00:50:57;;;;;;;3.58;2.10;;;;;;;4.57;95.49;99690.50;4210577;27;20048;-72
2021/12/14 00:52:58;;;;;;;2.83;2.33;;;;;;;4.57;93.49;99694.06;4210120;27;20490;-71
2021/12/14 00:54:59;;;;;;;3.58;2.70;;;;;;;4.63;93.18;99689.25;4212732;27;20119;-72
2021/12/14 00:56:59;;;;;;;4.22;2.97;;;;;;;4.63;92.46;99689.25;4210949;27;20039;-72
2021/12/14 00:59:04;;;;;;;3.28;2.28;;;;;;;4.63;92.38;99690.06;4208837;27;20492;-71
2021/12/14 01:01:13;;;;;;;3.88;2.78;;;;;;;4.63;93.22;99686.53;4208608;27;20131;-71
2021/12/14 01:03:13;;;;;;;2.85;2.47;;;;;;;4.63;92.78;99683.78;4215119;27;20522;-71
2021/12/14 01:05:22;;;;;;;3.00;2.20;;;;;;;4.62;93.45;99682.97;4208676;27;20051;-72
2021/12/14 01:07:26;;;;;;;3.20;2.45;;;;;;;4.61;93.66;99686.03;4210007;27;20085;-72
2021/12/14 01:09:30;;;;;;;3.13;2.55;;;;;;;4.59;93.65;99686.34;4206873;27;20036;-72
2021/12/14 01:11:40;;;;;;;3.67;2.63;;;;;;;4.58;94.45;99694.88;4208519;27;20040;-71
2021/12/14 01:13:48;;;;;;;3.78;2.72;;;;;;;4.57;94.21;99693.25;4211344;27;20051;-71
2021/12/14 01:16:16;;;;;;;3.63;2.63;;;;;;;4.58;94.42;99698.44;4209901;27;20036;-71
2021/12/14 01:18:45;;;;;;;4.05;2.78;;;;;;;4.62;92.66;99696.66;4208702;27;20270;-71
2021/12/14 01:20:50;;;;;;;3.80;2.55;;;;;;;4.62;92.36;99684.91;4209486;27;20110;-71
2021/12/14 01:22:59;;;;;;;3.67;2.88;;;;;;;4.62;93.89;99691.19;4211529;27;20430;-71
2021/12/14 01:25:14;;;;;;;4.38;3.20;;;;;;;4.58;94.44;99681.97;4209331;27;20122;-72
2021/12/14 01:27:19;;;;;;;4.32;3.03;;;;;;;4.59;93.88;99691.81;4210981;27;20084;-71
2021/12/14 01:29:20;;;;;;;3.60;2.58;;;;;;;4.55;93.60;99688.09;4207255;27;20040;-71
2021/12/14 01:31:28;;;;;;;4.78;3.13;;;;;;;4.54;94.97;99688.38;4209728;27;20047;-71
2021/12/14 01:33:30;;;;;;;3.75;2.67;;;;;;;4.51;95.09;99684.31;4211010;27;20394;-71
2021/12/14 01:35:34;;;;;;;5.53;3.50;;;;;;;4.50;95.94;99689.00;4206035;28;20036;-71
2021/12/14 01:37:41;;;;;;;4.78;3.22;;;;;;;4.50;95.39;99693.66;4205442;27;20044;-72
2021/12/14 01:40:03;;;;;;;4.45;2.92;;;;;;;4.52;95.52;99688.69;4210780;27;20391;-71
2021/12/14 01:42:12;;;;;;;3.47;2.55;;;;;;;4.50;95.09;99686.25;4210062;27;20078;-71
2021/12/14 01:44:14;;;;;;;4.93;3.22;;;;;;;4.58;94.19;99681.97;4207600;27;20366;-71
2021/12/14 01:46:20;;;;;;;3.58;2.60;;;;;;;4.65;93.20;99689.78;4207254;27;20035;-72
2021/12/14 01:48:22;;;;;;;3.70;3.00;;;;;;;4.66;93.92;99685.91;4210472;27;20044;-71
2021/12/14 01:50:36;;;;;;;3.65;2.95;;;;;;;4.63;94.00;99686.53;4206698;27;20092;-71
2021/12/14 01:52:37;;;;;;;4.60;3.13;;;;;;;4.65;93.84;99693.34;4206089;27;20201;-72
2021/12/14 01:54:43;;;;;;;4.30;3.05;;;;;;;4.65;93.48;99682.38;4207872;27;20091;-72
2021/12/14 01:56:44;;;;;;;4.32;3.10;;;;;;;4.64;93.85;99685.44;4208992;27;20050;-71
2021/12/14 01:58:49;;;;;;;4.70;3.40;;;;;;;4.63;93.74;99683.78;4205740;27;20051;-71
2021/12/14 02:01:00;;;;;;;4.38;3.33;;;;;;;4.58;95.36;99692.13;4207841;27;20043;-71
2021/12/14 02:03:04;;;;;;;5.68;3.38;;;;;;;4.54;95.90;99686.44;4209724;27;20483;-71
2021/12/14 02:05:29;;;;;;;5.43;3.55;;;;;;;4.51;95.73;99696.09;4212049;27;20542;-72
2021/12/14 02:07:32;;;;;;;7.07;3.70;;;;;;;4.48;95.70;99695.91;4206174;27;20036;-71
2021/12/14 02:09:35;;;;;;;5.38;3.63;;;;;;;4.48;96.10;99693.19;4206681;27;20072;-72
2021/12/14 02:11:39;;;;;;;4.68;3.30;;;;;;;4.49;96.05;99698.34;4206889;27;20048;-71
2021/12/14 02:13:44;;;;;;;5.05;3.78;;;;;;;4.47;96.02;99699.78;4207172;27;20472;-71
2021/12/14 02:15:45;;;;;;;3.92;2.88;;;;;;;4.46;96.38;99698.13;4206730;27;20039;-71
2021/12/14 02:17:46;;;;;;;4.22;3.20;;;;;;;4.42;96.13;99681.50;4206821;27;20439;-71
2021/12/14 02:19:47;;;;;;;4.15;3.33;;;;;;;4.45;96.89;99680.06;4208532;27;20654;-71
2021/12/14 02:21:49;;;;;;;4.78;3.13;;;;;;;4.41;97.35;99679.88;4206030;27;20429;-72
2021/12/14 02:23:54;;;;;;;4.80;3.50;;;;;;;4.43;96.78;99688.59;4208313;27;20123;-71
2021/12/14 02:25:59;;;;;;;4.07;3.03;;;;;;;4.40;97.37;99678.28;4208074;27;20143;-72
2021/12/14 02:28:05;;;;;;;5.22;3.70;;;;;;;4.41;97.24;99690.03;4210001;27;20050;-71
2021/12/14 02:30:16;;;;;;;4.65;3.45;;;;;;;4.40;97.60;99686.50;4204457;27;20139;-72
2021/12/14 02:32:26;;;;;;;4.63;3.33;;;;;;;4.36;97.54;99677.25;4206696;27;20031;-71
2021/12/14 02:34:27;;;;;;;5.63;3.30;;;;;;;4.38;98.02;99682.41;4208493;27;20047;-71
2021/12/14 02:36:30;;;;;;;6.00;3.63;;;;;;;4.35;98.38;99681.13;4206728;27;20046;-71
2021/12/14 02:38:31;;;;;;;4.45;3.20;;;;;;;4.34;98.39;99674.00;4204918;27;20050;-72
2021/12/14 02:40:53;;;;;;;4.93;3.05;;;;;;;4.33;99.06;99677.88;4213929;27;20519;-71
2021/12/14 02:42:55;;;;;;;11.93;6.20;;;;;;;4.33;99.06;99672.41;4209807;27;20105;-72
2021/12/14 02:44:57;;;;;;;16.20;8.38;;;;;;;4.32;98.99;99651.59;4212249;27;20417;-71
2021/12/14 02:47:06;;;;;;;15.30;8.45;;;;;;;4.33;98.91;99657.88;4209789;27;20043;-72
2021/12/14 02:49:14;;;;;;;19.90;10.07;;;;;;;4.33;99.03;99660.63;4208930;27;20032;-71
2021/12/14 02:51:21;;;;;;;16.95;8.57;;;;;;;4.30;99.78;99653.81;4208067;27;20036;-71
2021/12/14 02:53:22;;;;;;;14.10;7.97;;;;;;;4.27;100.00;99651.69;4204985;27;20036;-71
2021/12/14 02:55:26;;;;;;;12.13;7.28;;;;;;;4.25;100.00;99645.72;4206400;27;20043;-72
2021/12/14 02:57:30;;;;;;;10.32;6.88;;;;;;;4.25;99.98;99642.19;4211508;27;20202;-72
2021/12/14 02:59:33;;;;;;;9.88;5.90;;;;;;;4.25;100.00;99642.19;4212859;27;20134;-71
2021/12/14 03:01:35;;;;;;;10.63;6.43;;;;;;;4.21;100.00;99634.56;4204978;27;20040;-71
2021/12/14 03:03:36;;;;;;;9.20;5.90;;;;;;;4.20;100.00;99646.63;4208140;27;20044;-71
2021/12/14 03:05:39;;;;;;;8.45;5.50;;;;;;;4.19;100.00;99634.06;4206974;27;20475;-71
2021/12/14 03:07:44;;;;;;;9.18;5.03;;;;;;;4.22;100.00;99630.72;4205011;27;20409;-71
2021/12/14 03:11:51;;;;;;;7.05;4.28;;;;;;;4.21;100.00;99631.00;4207040;27;20563;-71
2021/12/14 03:13:52;;;;;;;6.72;3.97;;;;;;;4.21;100.00;99634.56;4206639;27;20081;-72
2021/12/14 03:15:56;;;;;;;8.15;4.88;;;;;;;4.22;100.00;99629.91;4206616;27;20047;-71
2021/12/14 03:18:00;;;;;;;5.70;4.20;;;;;;;4.20;99.84;99626.66;4210985;27;20308;-72
2021/12/14 03:20:07;;;;;;;5.50;3.80;;;;;;;4.20;100.00;99632.13;4205884;27;20420;-71
2021/12/14 03:22:34;;;;;;;4.18;3.25;;;;;;;4.19;99.79;99627.78;4208642;27;20038;-72
2021/12/14 03:24:38;;;;;;;5.07;3.22;;;;;;;4.21;99.97;99636.47;4208231;27;20131;-71
2021/12/14 03:26:43;;;;;;;4.55;3.00;;;;;;;4.18;99.74;99623.41;4208566;27;20046;-71
2021/12/14 03:28:47;;;;;;;4.80;3.13;;;;;;;4.19;99.18;99625.84;4207091;27;20039;-71
2021/12/14 03:30:47;;;;;;;5.82;3.75;;;;;;;4.22;99.30;99630.72;4205072;28;20484;-71
2021/12/14 03:32:48;;;;;;;5.25;3.63;;;;;;;4.22;98.33;99628.00;4207888;27;20047;-71
2021/12/14 03:34:48;;;;;;;5.40;3.78;;;;;;;4.25;98.56;99633.97;4206475;27;20044;-71
2021/12/14 03:36:57;;;;;;;5.72;4.03;;;;;;;4.25;97.75;99621.06;4206592;27;20308;-71
2021/12/14 03:39:15;;;;;;;5.00;3.53;;;;;;;4.25;97.96;99621.06;4204410;28;20040;-71
2021/12/14 03:41:19;;;;;;;5.97;3.60;;;;;;;4.24;98.46;99613.97;4205973;27;20087;-71
2021/12/14 03:43:20;;;;;;;4.95;3.47;;;;;;;4.26;98.35;99611.72;4206033;27;20104;-72
2021/12/14 03:45:20;;;;;;;6.35;4.20;;;;;;;4.27;98.33;99601.59;4205566;27;20047;-71
2021/12/14 03:47:26;;;;;;;5.53;4.15;;;;;;;4.29;98.58;99597.41;4206267;27;20502;-72
2021/12/14 03:49:40;;;;;;;5.93;3.85;;;;;;;4.27;98.42;99590.63;4205612;27;20081;-72
2021/12/14 03:51:40;;;;;;;6.75;4.50;;;;;;;4.25;98.48;99584.66;4205802;27;20048;-72
2021/12/14 03:53:41;;;;;;;6.63;4.07;;;;;;;4.25;99.26;99579.97;4212216;27;20062;-71
2021/12/14 03:55:45;;;;;;;6.38;4.65;;;;;;;4.24;98.66;99586.59;4205384;28;20071;-72
2021/12/14 03:57:46;;;;;;;6.65;4.55;;;;;;;4.21;98.92;99578.97;4207937;28;20450;-72
2021/12/14 03:59:46;;;;;;;6.47;4.25;;;;;;;4.22;98.50;99575.94;4203971;28;20158;-71
2021/12/14 04:01:50;;;;;;;5.88;4.43;;;;;;;4.22;99.00;99569.66;4208409;27;20036;-71
2021/12/14 04:03:57;;;;;;;6.57;4.43;;;;;;;4.21;99.48;99562.53;4209109;28;20040;-71
2021/12/14 04:05:58;;;;;;;6.22;4.15;;;;;;;4.20;98.61;99558.16;4208533;28;20028;-72
2021/12/14 04:07:59;;;;;;;7.25;4.63;;;;;;;4.22;97.88;99553.22;4203944;28;20048;-71
2021/12/14 04:10:00;;;;;;;7.25;4.80;;;;;;;4.22;98.30;99547.72;4206555;28;20701;-71
2021/12/14 04:12:02;;;;;;;7.38;4.82;;;;;;;4.20;98.11;99539.00;4208467;28;20157;-71
2021/12/14 04:14:03;;;;;;;8.30;5.03;;;;;;;4.19;98.25;99535.44;4205466;28;20649;-71
2021/12/14 04:16:05;;;;;;;7.75;4.78;;;;;;;4.21;98.07;99538.69;4207281;28;20149;-71
2021/12/14 04:18:05;;;;;;;7.20;5.00;;;;;;;4.19;98.53;99540.13;4205948;28;20047;-71
2021/12/14 04:20:30;;;;;;;7.38;5.32;;;;;;;4.18;99.13;99528.34;4205842;28;20182;-71
2021/12/14 04:22:33;;;;;;;6.95;4.68;;;;;;;4.16;98.76;99518.84;4211270;28;20446;-71
2021/12/14 04:24:36;;;;;;;7.20;4.93;;;;;;;4.14;99.22;99515.59;4205181;27;20097;-71
2021/12/14 04:26:44;;;;;;;7.95;5.53;;;;;;;4.18;98.39;99513.84;4207404;28;20040;-71
2021/12/14 04:28:53;;;;;;;7.90;5.20;;;;;;;4.17;98.08;99517.72;4204431;28;20044;-72
2021/12/14 04:30:54;;;;;;;7.75;4.97;;;;;;;4.18;98.19;99522.88;4206289;28;20076;-71
2021/12/14 04:32:59;;;;;;;7.80;5.30;;;;;;;4.17;98.80;99520.44;4210772;27;20044;-71
2021/12/14 04:35:00;;;;;;;6.97;4.90;;;;;;;4.14;98.90;99523.81;4209057;27;20044;-71
2021/12/14 04:37:02;;;;;;;8.55;5.15;;;;;;;4.11;99.45;99518.94;4205697;28;20481;-71
2021/12/14 04:39:31;;;;;;;8.82;5.55;;;;;;;4.11;99.81;99508.78;4205599;28;20346;-71
2021/12/14 04:53:11;;;;;;;7.20;4.63;;;;;;;4.12;98.73;99531.50;4210900;27;20097;-71
2021/12/14 04:55:11;;;;;;;8.60;5.10;;;;;;;4.12;98.70;99515.09;4207354;28;20036;-71
2021/12/14 04:57:21;;;;;;;8.43;5.28;;;;;;;4.15;97.98;99526.25;4208215;28;20052;-71
2021/12/14 04:59:27;;;;;;;8.30;5.70;;;;;;;4.12;98.34;99512.34;4206083;28;20480;-71
2021/12/14 05:01:31;;;;;;;10.70;5.57;;;;;;;4.13;98.16;99517.50;4206829;28;20048;-71
2021/12/14 05:03:37;;;;;;;8.32;5.55;;;;;;;4.14;97.79;99521.91;4211218;28;20044;-71
2021/12/14 05:05:45;;;;;;;10.75;6.60;;;;;;;4.15;97.22;99517.22;4209864;28;20036;-71
2021/12/14 05:09:19;;;;;;;8.70;5.82;;;;;;;4.15;96.82;99522.69;4206983;28;20028;-71
2021/12/14 05:10:19;;;;;;;8.65;5.43;;;;;;;4.16;96.96;99522.38;4207628;28;20036;-71
2021/12/14 05:12:23;;;;;;;8.32;5.45;;;;;;;4.11;96.44;99517.00;4211187;27;20031;-71
2021/12/14 05:14:26;;;;;;;9.43;6.13;;;;;;;4.11;96.33;99508.78;4208490;27;20051;-71
2021/12/14 05:16:28;;;;;;;11.13;6.78;;;;;;;4.12;96.54;99512.34;4211025;27;20048;-71
2021/12/14 05:18:29;;;;;;;10.38;6.93;;;;;;;4.08;96.58;99520.38;4210406;27;20473;-71
2021/12/14 05:20:29;;;;;;;8.88;6.22;;;;;;;4.10;96.31;99523.63;4208722;27;20036;-71
2021/12/14 05:22:33;;;;;;;10.48;6.95;;;;;;;4.07;95.94;99526.97;4212563;27;20128;-71
2021/12/14 05:24:38;;;;;;;9.77;6.63;;;;;;;4.05;96.78;99531.13;4209939;27;20040;-71
2021/12/14 05:26:38;;;;;;;9.40;6.55;;;;;;;4.03;95.90;99533.38;4209760;27;20050;-71
2021/12/14 05:28:42;;;;;;;9.05;6.30;;;;;;;4.05;95.84;99533.88;4209619;28;20055;-72
2021/12/14 05:30:45;;;;;;;10.27;7.07;;;;;;;4.05;94.71;99536.59;4208859;27;20044;-71
2021/12/14 05:32:46;;;;;;;;;;;;;;;4.05;95.18;99537.41;4210261;27;20040;-71
2021/12/14 05:34:49;;;;;;;9.63;6.07;;;;;;;4.05;95.60;99542.91;4206409;27;19919;-72
2021/12/14 05:36:50;;;;;;;9.90;7.07;;;;;;;4.04;97.11;99556.91;4211593;27;20116;-71
2021/12/14 05:39:06;;;;;;;10.60;6.85;;;;;;;3.98;97.91;99545.28;4207808;27;20127;-71
2021/12/14 05:41:14;;;;;;;9.68;6.85;;;;;;;3.95;98.91;99546.69;4208815;27;20122;-71
2021/12/14 05:43:18;;;;;;;13.00;8.13;;;;;;;3.95;99.64;99552.16;4213632;27;20356;-71
2021/12/14 05:45:22;;;;;;;31.08;17.80;;;;;;;3.91;100.00;99553.91;4210960;27;20039;-71
2021/12/14 05:47:22;;;;;;;24.45;14.57;;;;;;;3.91;100.00;99553.91;4211875;27;20475;-71
2021/12/14 05:49:26;;;;;;;17.48;11.70;;;;;;;3.90;99.82;99560.50;4209577;27;20089;-72
2021/12/14 05:51:30;;;;;;;15.55;10.45;;;;;;;3.88;100.00;99559.16;4207227;27;20083;-72
2021/12/14 05:53:34;;;;;;;16.23;9.63;;;;;;;3.86;100.00;99550.47;4210581;27;20044;-71
2021/12/14 05:55:39;;;;;;;13.82;8.80;;;;;;;3.87;100.00;99560.28;4212353;27;20269;-72
2021/12/14 05:57:40;;;;;;;17.45;9.88;;;;;;;3.87;100.00;99549.34;4195049;27;20388;-71
2021/12/14 05:59:40;;;;;;;13.32;9.10;;;;;;;3.86;100.00;99551.25;4210083;27;20050;-72
2021/12/14 06:01:41;;;;;;;12.40;8.40;;;;;;;3.83;100.00;99549.16;4211677;27;20039;-72
2021/12/14 06:03:49;;;;;;;14.43;8.70;;;;;;;3.84;99.76;99545.28;4207006;27;20827;-71
2021/12/14 06:05:51;;;;;;;13.27;8.77;;;;;;;3.87;99.77;99552.06;4207504;27;20048;-71
2021/12/14 06:07:51;;;;;;;13.15;8.65;;;;;;;3.86;100.00;99547.72;4208135;27;20672;-71
2021/12/14 06:09:52;;;;;;;11.40;7.75;;;;;;;3.88;100.00;99545.47;4206559;27;20126;-71
2021/12/14 06:12:01;;;;;;;12.35;8.20;;;;;;;3.85;100.00;99527.75;4206927;27;20318;-71
2021/12/14 06:14:03;;;;;;;12.73;8.32;;;;;;;3.86;100.00;99526.63;4205294;27;20036;-71
2021/12/14 06:16:04;;;;;;;15.13;8.47;;;;;;;3.85;100.00;99525.00;4210724;27;20115;-71
2021/12/14 06:18:04;;;;;;;23.65;12.18;;;;;;;3.87;100.00;99528.25;4206260;27;20062;-72
2021/12/14 06:20:23;;;;;;;15.13;9.98;;;;;;;3.83;100.00;99520.97;4208703;27;20032;-71
2021/12/14 06:22:24;;;;;;;11.32;7.57;;;;;;;3.88;99.65;99529.84;4212871;27;20118;-72
2021/12/14 06:24:27;;;;;;;16.90;9.63;;;;;;;3.86;99.23;99526.63;4209066;27;20391;-71
2021/12/14 06:26:42;;;;;;;20.33;15.15;;;;;;;3.86;98.91;99534.84;4207068;27;20127;-71
2021/12/14 06:28:42;;;;;;;21.05;16.02;;;;;;;3.86;99.14;99532.09;4206275;27;20372;-71
2021/12/14 06:30:43;;;;;;;29.40;22.58;;;;;;;3.82;98.58;99528.38;4207683;27;20052;-71
2021/12/14 06:32:52;;;;;;;27.88;22.70;;;;;;;3.82;98.97;99533.84;4206839;27;20589;-71
2021/12/14 06:35:05;;;;;;;44.22;29.75;;;;;;;3.82;98.88;99527.56;4205659;27;20051;-71
2021/12/14 06:39:27;;;;;;;26.17;17.65;;;;;;;3.83;99.17;99532.72;4214164;27;20325;-72
2021/12/14 06:41:27;;;;;;;16.27;10.95;;;;;;;3.81;99.13;99524.03;4206524;27;20713;-72
2021/12/14 06:43:39;;;;;;;16.90;11.98;;;;;;;3.80;99.60;99516.91;4208961;27;20066;-71
2021/12/14 06:45:43;;;;;;;14.73;10.15;;;;;;;3.82;99.86;99527.56;4207019;27;20896;-71
2021/12/14 06:47:46;;;;;;;13.85;9.40;;;;;;;3.81;99.64;99521.28;4208115;27;20295;-71
2021/12/14 06:49:47;;;;;;;14.30;9.43;;;;;;;3.78;100.00;99516.41;4205116;27;20102;-71
2021/12/14 06:51:50;;;;;;;12.70;8.43;;;;;;;3.80;99.78;99514.16;4206765;27;20071;-71
2021/12/14 06:53:59;;;;;;;12.80;8.55;;;;;;;3.77;99.76;99525.75;4208337;27;20043;-71
2021/12/14 06:56:02;;;;;;;11.98;8.02;;;;;;;3.80;100.00;99533.31;4207265;27;20044;-71
